Darstellungsparameter: Aktuell verwendete Einstellungen:
Skalierung der Graphiken ... ?
xyx+y,   Skalierungsfaktor:      Skalierung: Modus: x, Faktor: 1
Darstellungszeitraum ... ?
Vom - - bis: - -   Zeitraum: 08.08.2019 - 08.08.2019
Min/Max/Avg-Anzeige ... ?
Zeige MMA aktuell
Zeige MMA Monat
Zeige MMA alles
Zeige --A aktuell
Zeige --A Monat
Zeige --A alles
Keine MMA-Anzeige
MMA:
Keine MMA-Graphiken
MMA-Basis: 08.08.2019 - 08.08.2019
Quicknavigation für Darstellung... ?
Tage:      1T, 2T, 3T, 5T -1T -2T -3T -5T +1T +2T +3T +5T
Wochen: 1W, 2W, 3W -1W -2W -3W +1W +2W +3W
Monate: 1M, 3M, 6M -1M -3M -6M +1M +3M +6M
Jahre:    1J, 3J, 5J, 10J -1J -3J -5J -10J +1J +3J +5J +10J
Nutze für die Darstellung ... ?
Originaldaten oder Mittelwerte auf ...
Stundenbasis Tagesbasis Wochenbasis
Monatsbasis Jahresbasis      Datenbasis: Original-Daten
Darstellen als:
Statistik (Auto) Statistik J:M      Darstellung:
Zur Graphik,    zurück zur Übersicht aller Sensoren.
 
Tabellarische Datenbersicht: ?
 
Sensor: Nr:Datum:Temp:Feuchte:Taupunkt:
Aussen-T/F 1 08-08-2019 00:00:00 16.1 C 90 % 14.46 C
2 08-08-2019 00:05:00 15.9 C 90 % 14.26 C
3 08-08-2019 00:10:00 15.8 C 90 % 14.16 C
4 08-08-2019 00:15:00 15.7 C 90 % 14.06 C
5 08-08-2019 00:20:00 15.7 C 91 % 14.24 C
6 08-08-2019 00:25:00 15.6 C 91 % 14.14 C
7 08-08-2019 00:30:00 15.6 C 92 % 14.31 C
8 08-08-2019 00:35:00 15.6 C 92 % 14.31 C
9 08-08-2019 00:40:00 15.6 C 92 % 14.31 C
10 08-08-2019 00:45:00 15.7 C 93 % 14.57 C
11 08-08-2019 00:50:00 15.8 C 93 % 14.67 C
12 08-08-2019 00:55:00 16.1 C 93 % 14.97 C
13 08-08-2019 01:00:00 16.2 C 92 % 14.9 C
14 08-08-2019 01:05:00 16.2 C 92 % 14.9 C
15 08-08-2019 01:10:00 16.3 C 92 % 15 C
16 08-08-2019 01:15:00 16.3 C 92 % 15 C
17 08-08-2019 01:20:00 16.4 C 92 % 15.1 C
18 08-08-2019 01:25:00 16.4 C 92 % 15.1 C
19 08-08-2019 01:30:00 16.4 C 92 % 15.1 C
20 08-08-2019 01:35:00 16.4 C 92 % 15.1 C
21 08-08-2019 01:40:00 16.4 C 92 % 15.1 C
22 08-08-2019 01:45:00 16.4 C 92 % 15.1 C
23 08-08-2019 01:50:00 16.4 C 92 % 15.1 C
24 08-08-2019 01:55:00 16.4 C 92 % 15.1 C
25 08-08-2019 02:00:00 16.4 C 92 % 15.1 C
Sensor: Nr:Datum:Temp:Feuchte:Taupunkt:
Aussen-T/F 26 08-08-2019 02:05:00 16.5 C 92 % 15.2 C
27 08-08-2019 02:10:00 16.5 C 92 % 15.2 C
28 08-08-2019 02:15:00 16.5 C 92 % 15.2 C
29 08-08-2019 02:20:00 16.5 C 92 % 15.2 C
30 08-08-2019 02:25:00 16.5 C 92 % 15.2 C
31 08-08-2019 02:30:00 16.5 C 92 % 15.2 C
32 08-08-2019 02:35:00 16.5 C 92 % 15.2 C
33 08-08-2019 02:40:00 16.4 C 92 % 15.1 C
34 08-08-2019 02:45:00 16.4 C 92 % 15.1 C
35 08-08-2019 02:50:00 16.4 C 92 % 15.1 C
36 08-08-2019 02:55:00 16.3 C 92 % 15 C
37 08-08-2019 03:00:00 16.3 C 92 % 15 C
38 08-08-2019 03:05:00 16.4 C 92 % 15.1 C
39 08-08-2019 03:10:00 16.4 C 92 % 15.1 C
40 08-08-2019 03:15:00 16.4 C 92 % 15.1 C
41 08-08-2019 03:20:00 16.5 C 92 % 15.2 C
42 08-08-2019 03:25:00 16.6 C 92 % 15.3 C
43 08-08-2019 03:30:00 16.6 C 92 % 15.3 C
44 08-08-2019 03:35:00 16.6 C 92 % 15.3 C
45 08-08-2019 03:40:00 16.5 C 92 % 15.2 C
46 08-08-2019 03:45:00 16.4 C 92 % 15.1 C
47 08-08-2019 03:50:00 16.3 C 91 % 14.83 C
48 08-08-2019 03:55:00 16.3 C 92 % 15 C
49 08-08-2019 04:00:00 16.2 C 92 % 14.9 C
50 08-08-2019 04:05:00 16.2 C 92 % 14.9 C
Sensor: Nr:Datum:Temp:Feuchte:Taupunkt:
Aussen-T/F 51 08-08-2019 04:10:00 16.2 C 92 % 14.9 C
52 08-08-2019 04:15:00 16.1 C 93 % 14.97 C
53 08-08-2019 04:20:00 16.1 C 92 % 14.8 C
54 08-08-2019 04:25:00 16.1 C 93 % 14.97 C
55 08-08-2019 04:30:00 16 C 93 % 14.87 C
56 08-08-2019 04:35:00 16 C 93 % 14.87 C
57 08-08-2019 04:40:00 16 C 93 % 14.87 C
58 08-08-2019 04:45:00 16 C 93 % 14.87 C
59 08-08-2019 04:50:00 16 C 93 % 14.87 C
60 08-08-2019 04:55:00 15.9 C 93 % 14.77 C
61 08-08-2019 05:00:00 15.8 C 93 % 14.67 C
62 08-08-2019 05:05:00 15.7 C 93 % 14.57 C
63 08-08-2019 05:10:00 15.6 C 92 % 14.31 C
64 08-08-2019 05:15:00 15.4 C 92 % 14.11 C
65 08-08-2019 05:20:00 15.3 C 93 % 14.18 C
66 08-08-2019 05:25:00 15.2 C 93 % 14.08 C
67 08-08-2019 05:30:00 15.1 C 93 % 13.98 C
68 08-08-2019 05:35:00 15 C 93 % 13.88 C
69 08-08-2019 05:40:00 15.1 C 94 % 14.14 C
70 08-08-2019 05:45:00 15.1 C 94 % 14.14 C
71 08-08-2019 05:50:00 15.2 C 94 % 14.24 C
72 08-08-2019 05:55:00 15.3 C 95 % 14.5 C
73 08-08-2019 06:00:00 15.3 C 95 % 14.5 C
74 08-08-2019 06:05:00 15.4 C 95 % 14.6 C
75 08-08-2019 06:10:00 15.4 C 95 % 14.6 C
Sensor: Nr:Datum:Temp:Feuchte:Taupunkt:
Aussen-T/F 76 08-08-2019 06:15:00 15.6 C 95 % 14.8 C
77 08-08-2019 06:20:00 15.7 C 94 % 14.74 C
78 08-08-2019 06:25:00 15.8 C 94 % 14.84 C
79 08-08-2019 06:30:00 15.8 C 94 % 14.84 C
80 08-08-2019 06:35:00 15.9 C 94 % 14.94 C
81 08-08-2019 06:40:00 15.9 C 93 % 14.77 C
82 08-08-2019 06:45:00 15.9 C 93 % 14.77 C
83 08-08-2019 06:50:00 15.9 C 93 % 14.77 C
84 08-08-2019 06:55:00 15.8 C 93 % 14.67 C
85 08-08-2019 07:00:00 15.8 C 93 % 14.67 C
86 08-08-2019 07:05:00 15.8 C 93 % 14.67 C
87 08-08-2019 07:10:00 15.8 C 93 % 14.67 C
88 08-08-2019 07:15:00 15.8 C 93 % 14.67 C
89 08-08-2019 07:20:00 15.8 C 93 % 14.67 C
90 08-08-2019 07:25:00 15.9 C 94 % 14.94 C
91 08-08-2019 07:30:00 15.9 C 94 % 14.94 C
92 08-08-2019 07:35:00 16 C 94 % 15.03 C
93 08-08-2019 07:40:00 16.1 C 94 % 15.13 C
94 08-08-2019 07:45:00 16.1 C 94 % 15.13 C
95 08-08-2019 07:50:00 16.2 C 94 % 15.23 C
96 08-08-2019 07:55:00 16.2 C 94 % 15.23 C
97 08-08-2019 08:00:00 16.3 C 94 % 15.33 C
98 08-08-2019 08:05:00 16.4 C 93 % 15.27 C
99 08-08-2019 08:10:00 16.6 C 93 % 15.46 C
100 08-08-2019 08:15:00 16.7 C 92 % 15.39 C
Sensor: Nr:Datum:Temp:Feuchte:Taupunkt:
Aussen-T/F 101 08-08-2019 08:20:00 16.9 C 92 % 15.59 C
102 08-08-2019 08:25:00 17.1 C 91 % 15.62 C
103 08-08-2019 08:30:00 17.2 C 91 % 15.72 C
104 08-08-2019 08:35:00 17.3 C 90 % 15.64 C
105 08-08-2019 08:40:00 17.4 C 90 % 15.74 C
106 08-08-2019 08:45:00 17.5 C 90 % 15.84 C
107 08-08-2019 08:50:00 17.6 C 89 % 15.77 C
108 08-08-2019 08:55:00 17.7 C 89 % 15.86 C
109 08-08-2019 09:00:00 17.8 C 89 % 15.96 C
110 08-08-2019 09:05:00 17.9 C 88 % 15.88 C
111 08-08-2019 09:10:00 18.1 C 88 % 16.08 C
112 08-08-2019 09:15:00 18.3 C 87 % 16.1 C
113 08-08-2019 09:20:00 18.4 C 85 % 15.83 C
114 08-08-2019 09:25:00 18.5 C 85 % 15.93 C
115 08-08-2019 09:30:00 18.6 C 84 % 15.84 C
116 08-08-2019 09:35:00 18.7 C 84 % 15.94 C
117 08-08-2019 09:40:00 18.9 C 81 % 15.57 C
118 08-08-2019 09:45:00 19.1 C 81 % 15.76 C
119 08-08-2019 09:50:00 19.2 C 80 % 15.67 C
120 08-08-2019 09:55:00 19.2 C 77 % 15.07 C
121 08-08-2019 10:00:00 19.3 C 76 % 14.97 C
122 08-08-2019 10:05:00 19.4 C 74 % 14.65 C
123 08-08-2019 10:10:00 19.5 C 76 % 15.16 C
124 08-08-2019 10:15:00 19.6 C 76 % 15.26 C
125 08-08-2019 10:20:00 19.7 C 73 % 14.73 C
Sensor: Nr:Datum:Temp:Feuchte:Taupunkt:
Aussen-T/F 126 08-08-2019 10:25:00 19.9 C 73 % 14.92 C
127 08-08-2019 10:30:00 20.2 C 72 % 14.99 C
128 08-08-2019 10:35:00 20.3 C 72 % 15.09 C
129 08-08-2019 10:40:00 20.5 C 72 % 15.28 C
130 08-08-2019 10:45:00 20.7 C 71 % 15.25 C
131 08-08-2019 10:50:00 20.8 C 71 % 15.35 C
132 08-08-2019 10:55:00 20.8 C 70 % 15.13 C
133 08-08-2019 11:00:00 21 C 70 % 15.32 C
134 08-08-2019 11:05:00 21.1 C 68 % 14.97 C
135 08-08-2019 11:10:00 21.2 C 67 % 14.83 C
136 08-08-2019 11:15:00 21.3 C 68 % 15.16 C
137 08-08-2019 11:20:00 21.5 C 67 % 15.12 C
138 08-08-2019 11:25:00 21.6 C 68 % 15.44 C
139 08-08-2019 11:30:00 21.8 C 66 % 15.17 C
140 08-08-2019 11:35:00 21.9 C 64 % 14.78 C
141 08-08-2019 11:40:00 22 C 65 % 15.12 C
142 08-08-2019 11:45:00 22.3 C 62 % 14.67 C
143 08-08-2019 11:50:00 22.5 C 62 % 14.86 C
144 08-08-2019 11:55:00 22.7 C 62 % 15.05 C
145 08-08-2019 12:00:00 22.8 C 62 % 15.14 C
146 08-08-2019 12:05:00 22.7 C 63 % 15.3 C
147 08-08-2019 12:10:00 22.6 C 63 % 15.2 C
148 08-08-2019 12:15:00 22.7 C 64 % 15.54 C
149 08-08-2019 12:20:00 22.7 C 62 % 15.05 C
150 08-08-2019 12:25:00 22.9 C 60 % 14.73 C
Sensor: Nr:Datum:Temp:Feuchte:Taupunkt:
Aussen-T/F 151 08-08-2019 12:30:00 23 C 61 % 15.08 C
152 08-08-2019 12:35:00 23 C 61 % 15.08 C
153 08-08-2019 12:40:00 23.2 C 60 % 15.01 C
154 08-08-2019 12:45:00 23.3 C 60 % 15.1 C
155 08-08-2019 12:50:00 23.4 C 60 % 15.19 C
156 08-08-2019 12:55:00 23.6 C 58 % 14.86 C
157 08-08-2019 13:00:00 23.7 C 60 % 15.48 C
158 08-08-2019 13:05:00 23.8 C 59 % 15.31 C
159 08-08-2019 13:10:00 23.9 C 59 % 15.4 C
160 08-08-2019 13:15:00 24.1 C 57 % 15.05 C
161 08-08-2019 13:20:00 24.1 C 57 % 15.05 C
162 08-08-2019 13:25:00 24.2 C 57 % 15.14 C
163 08-08-2019 13:30:00 24.2 C 55 % 14.59 C
164 08-08-2019 13:35:00 24.1 C 56 % 14.78 C
165 08-08-2019 13:40:00 24 C 58 % 15.23 C
166 08-08-2019 13:45:00 24 C 58 % 15.23 C
167 08-08-2019 13:50:00 24 C 56 % 14.68 C
168 08-08-2019 13:55:00 24.2 C 57 % 15.14 C
169 08-08-2019 14:00:00 24.2 C 58 % 15.42 C
170 08-08-2019 14:05:00 24.1 C 57 % 15.05 C
171 08-08-2019 14:10:00 24.1 C 59 % 15.59 C
172 08-08-2019 14:15:00 24.2 C 58 % 15.42 C
173 08-08-2019 14:20:00 24.3 C 59 % 15.78 C
174 08-08-2019 14:25:00 24.3 C 58 % 15.51 C
175 08-08-2019 14:30:00 24.3 C 57 % 15.24 C
Sensor: Nr:Datum:Temp:Feuchte:Taupunkt:
Aussen-T/F 176 08-08-2019 14:35:00 24.2 C 57 % 15.14 C
177 08-08-2019 14:40:00 24.2 C 55 % 14.59 C
178 08-08-2019 14:45:00 24.2 C 56 % 14.87 C
179 08-08-2019 14:50:00 24.2 C 57 % 15.14 C
180 08-08-2019 14:55:00 24.2 C 57 % 15.14 C
181 08-08-2019 15:00:00 24.2 C 56 % 14.87 C
182 08-08-2019 15:05:00 24.2 C 60 % 15.95 C
183 08-08-2019 15:10:00 24.3 C 56 % 14.96 C
184 08-08-2019 15:15:00 24.4 C 56 % 15.06 C
185 08-08-2019 15:20:00 24.6 C 57 % 15.52 C
186 08-08-2019 15:25:00 24.7 C 56 % 15.33 C
187 08-08-2019 15:30:00 24.7 C 58 % 15.88 C
188 08-08-2019 15:35:00 24.5 C 58 % 15.7 C
189 08-08-2019 15:40:00 24.3 C 60 % 16.04 C
190 08-08-2019 15:45:00 24.5 C 59 % 15.96 C
191 08-08-2019 15:50:00 24.7 C 56 % 15.33 C
192 08-08-2019 15:55:00 25.1 C 54 % 15.14 C
193 08-08-2019 16:00:00 25.4 C 53 % 15.13 C
194 08-08-2019 16:05:00 25.5 C 54 % 15.51 C
195 08-08-2019 16:10:00 25.8 C 55 % 16.07 C
196 08-08-2019 16:15:00 26.1 C 51 % 15.17 C
197 08-08-2019 16:20:00 26.3 C 55 % 16.54 C
198 08-08-2019 16:25:00 26.8 C 51 % 15.82 C
199 08-08-2019 16:30:00 26.8 C 51 % 15.82 C
200 08-08-2019 16:35:00 27.1 C 51 % 16.09 C
Sensor: Nr:Datum:Temp:Feuchte:Taupunkt:
Aussen-T/F 201 08-08-2019 16:40:00 27.3 C 48 % 15.33 C
202 08-08-2019 16:45:00 27.3 C 50 % 15.97 C
203 08-08-2019 16:50:00 27.2 C 50 % 15.87 C
204 08-08-2019 16:55:00 27.4 C 48 % 15.42 C
205 08-08-2019 17:00:00 27.5 C 48 % 15.51 C
206 08-08-2019 17:05:00 27.5 C 48 % 15.51 C
207 08-08-2019 17:10:00 27.2 C 47 % 14.91 C
208 08-08-2019 17:15:00 26.6 C 49 % 15.01 C
209 08-08-2019 17:20:00 26.6 C 53 % 16.23 C
210 08-08-2019 17:25:00 27.1 C 49 % 15.47 C
211 08-08-2019 17:30:00 27.5 C 47 % 15.18 C
212 08-08-2019 17:35:00 27.7 C 47 % 15.36 C
213 08-08-2019 17:40:00 27.4 C 46 % 14.76 C
214 08-08-2019 17:45:00 26.9 C 48 % 14.96 C
215 08-08-2019 17:50:00 27 C 48 % 15.05 C
216 08-08-2019 17:55:00 27.2 C 48 % 15.24 C
217 08-08-2019 18:00:00 27.2 C 47 % 14.91 C
218 08-08-2019 18:05:00 27.1 C 48 % 15.15 C
219 08-08-2019 18:10:00 27.4 C 47 % 15.09 C
220 08-08-2019 18:15:00 27.8 C 47 % 15.45 C
221 08-08-2019 18:20:00 27.9 C 45 % 14.87 C
222 08-08-2019 18:25:00 27.8 C 45 % 14.78 C
223 08-08-2019 18:30:00 27.7 C 46 % 15.03 C
224 08-08-2019 18:35:00 27.7 C 47 % 15.36 C
225 08-08-2019 18:40:00 27.7 C 46 % 15.03 C
Sensor: Nr:Datum:Temp:Feuchte:Taupunkt:
Aussen-T/F 226 08-08-2019 18:45:00 27.4 C 50 % 16.06 C
227 08-08-2019 18:50:00 27.1 C 50 % 15.78 C
228 08-08-2019 18:55:00 26.8 C 50 % 15.51 C
229 08-08-2019 19:00:00 26.3 C 51 % 15.36 C
230 08-08-2019 19:05:00 26.1 C 55 % 16.35 C
231 08-08-2019 19:10:00 25.9 C 58 % 17 C
232 08-08-2019 19:15:00 25.7 C 62 % 17.87 C
233 08-08-2019 19:20:00 25.6 C 62 % 17.78 C
234 08-08-2019 19:25:00 25.4 C 62 % 17.59 C
235 08-08-2019 19:30:00 25.2 C 64 % 17.9 C
236 08-08-2019 19:35:00 25.1 C 65 % 18.06 C
237 08-08-2019 19:40:00 25 C 66 % 18.2 C
238 08-08-2019 19:45:00 24.9 C 67 % 18.35 C
239 08-08-2019 19:50:00 24.9 C 66 % 18.11 C
240 08-08-2019 19:55:00 25.1 C 67 % 18.54 C
241 08-08-2019 20:00:00 25.1 C 66 % 18.3 C
242 08-08-2019 20:05:00 25.1 C 65 % 18.06 C
243 08-08-2019 20:10:00 24.9 C 64 % 17.62 C
244 08-08-2019 20:15:00 24.7 C 64 % 17.43 C
245 08-08-2019 20:20:00 24.3 C 66 % 17.54 C
246 08-08-2019 20:25:00 23.9 C 67 % 17.4 C
247 08-08-2019 20:30:00 23.4 C 68 % 17.16 C
248 08-08-2019 20:35:00 22.9 C 69 % 16.91 C
249 08-08-2019 20:40:00 22.6 C 70 % 16.85 C
250 08-08-2019 20:45:00 22.2 C 70 % 16.47 C
Sensor: Nr:Datum:Temp:Feuchte:Taupunkt:
Aussen-T/F 251 08-08-2019 20:50:00 22 C 71 % 16.5 C
252 08-08-2019 20:55:00 21.8 C 71 % 16.31 C
253 08-08-2019 21:00:00 21.6 C 72 % 16.34 C
254 08-08-2019 21:05:00 21.4 C 73 % 16.36 C
255 08-08-2019 21:10:00 21.2 C 74 % 16.38 C
256 08-08-2019 21:15:00 21 C 75 % 16.4 C
257 08-08-2019 21:20:00 20.8 C 75 % 16.21 C
258 08-08-2019 21:25:00 20.7 C 77 % 16.52 C
259 08-08-2019 21:30:00 20.5 C 78 % 16.53 C
260 08-08-2019 21:35:00 20.3 C 78 % 16.34 C
261 08-08-2019 21:40:00 20.2 C 78 % 16.24 C
262 08-08-2019 21:45:00 20.1 C 79 % 16.34 C
263 08-08-2019 21:50:00 19.9 C 79 % 16.15 C
264 08-08-2019 21:55:00 19.8 C 79 % 16.05 C
265 08-08-2019 22:00:00 19.8 C 80 % 16.25 C
266 08-08-2019 22:05:00 19.7 C 81 % 16.35 C
267 08-08-2019 22:10:00 19.6 C 82 % 16.44 C
268 08-08-2019 22:15:00 19.4 C 82 % 16.25 C
269 08-08-2019 22:20:00 19.3 C 83 % 16.34 C
270 08-08-2019 22:25:00 19.2 C 83 % 16.24 C
271 08-08-2019 22:30:00 19.1 C 83 % 16.15 C
272 08-08-2019 22:35:00 18.9 C 84 % 16.14 C
273 08-08-2019 22:40:00 18.8 C 84 % 16.04 C
274 08-08-2019 22:45:00 18.8 C 85 % 16.23 C
275 08-08-2019 22:50:00 18.7 C 85 % 16.13 C
Sensor: Nr:Datum:Temp:Feuchte:Taupunkt:
Aussen-T/F 276 08-08-2019 22:55:00 18.6 C 86 % 16.21 C
277 08-08-2019 23:00:00 18.4 C 86 % 16.02 C
278 08-08-2019 23:05:00 18.4 C 86 % 16.02 C
279 08-08-2019 23:10:00 18.3 C 87 % 16.1 C
280 08-08-2019 23:15:00 18.2 C 87 % 16 C
281 08-08-2019 23:20:00 18.2 C 88 % 16.18 C
282 08-08-2019 23:25:00 18.2 C 88 % 16.18 C
283 08-08-2019 23:30:00 18.2 C 88 % 16.18 C
284 08-08-2019 23:35:00 18.2 C 88 % 16.18 C
285 08-08-2019 23:40:00 18.1 C 88 % 16.08 C
286 08-08-2019 23:45:00 18.1 C 88 % 16.08 C
287 08-08-2019 23:50:00 17.9 C 88 % 15.88 C
288 08-08-2019 23:55:00 17.8 C 88 % 15.79 C

Legende:
   Min
   Max


Maximal/Minimal-Werte vom 08.08.2019 - 08.08.2019

Sensor Min Max Avg
Temp
(Aussen-T/F)
15 °C
08-08-2019  05:35:00
27.9 °C
08-08-2019  18:20:00
20.39 °C
Feuchte
(Aussen-T/F)
45 %
08-08-2019  18:20:00
95 %
08-08-2019  05:55:00
75.48 %
Taupunkt
(Aussen-T/F)
13.88 C
08-08-2019  05:35:00
18.54 C
08-08-2019  19:55:00
15.39 C

Die Daten stammen von einer Davis Vantage Pro 2 Wetter-Station und werden unter Linux mit der Software wview2wettercgi und aufbereitet. Alle Angaben erfolgen ohne Gewähr für ihre Vollständigkeit oder Richtigkeit.
Kontakt: Rainer Krienke krienke@uni-koblenz.de . Meine Webseiten an der Uni Koblenz oder privat.
Version: $Revision: 0.78 $